sensor_id;sensor_type;location;lat;lon;timestamp;P1;durP1;ratioP1;P2;durP2;ratioP2
60076;SDS011;45950;45.208;20.374;2022-10-04T00:00:43;3.20;;;1.63;;
60076;SDS011;45950;45.208;20.374;2022-10-04T00:03:11;3.90;;;1.80;;
60076;SDS011;45950;45.208;20.374;2022-10-04T00:05:41;4.32;;;2.03;;
60076;SDS011;45950;45.208;20.374;2022-10-04T00:08:17;2.95;;;1.65;;
60076;SDS011;45950;45.208;20.374;2022-10-04T00:10:47;3.63;;;2.40;;
60076;SDS011;45950;45.208;20.374;2022-10-04T00:13:14;4.28;;;2.08;;
60076;SDS011;45950;45.208;20.374;2022-10-04T00:15:41;4.95;;;2.45;;
60076;SDS011;45950;45.208;20.374;2022-10-04T00:21:12;5.63;;;2.70;;
60076;SDS011;45950;45.208;20.374;2022-10-04T00:23:40;5.28;;;2.10;;
60076;SDS011;45950;45.208;20.374;2022-10-04T00:26:10;4.70;;;2.03;;
60076;SDS011;45950;45.208;20.374;2022-10-04T00:28:42;3.30;;;2.10;;
60076;SDS011;45950;45.208;20.374;2022-10-04T00:31:13;4.88;;;1.85;;
60076;SDS011;45950;45.208;20.374;2022-10-04T00:33:41;4.30;;;2.50;;
60076;SDS011;45950;45.208;20.374;2022-10-04T00:42:04;3.10;;;2.15;;
60076;SDS011;45950;45.208;20.374;2022-10-04T00:44:35;3.47;;;1.80;;
60076;SDS011;45950;45.208;20.374;2022-10-04T00:47:11;3.10;;;2.08;;
60076;SDS011;45950;45.208;20.374;2022-10-04T00:49:39;4.60;;;1.92;;
60076;SDS011;45950;45.208;20.374;2022-10-04T00:52:09;5.05;;;1.90;;
60076;SDS011;45950;45.208;20.374;2022-10-04T00:54:39;4.05;;;2.20;;
60076;SDS011;45950;45.208;20.374;2022-10-04T00:57:10;4.72;;;1.92;;
60076;SDS011;45950;45.208;20.374;2022-10-04T00:59:38;4.28;;;1.88;;
60076;SDS011;45950;45.208;20.374;2022-10-04T01:05:09;6.00;;;2.00;;
60076;SDS011;45950;45.208;20.374;2022-10-04T01:07:37;3.15;;;1.92;;
60076;SDS011;45950;45.208;20.374;2022-10-04T01:10:06;3.90;;;2.10;;
60076;SDS011;45950;45.208;20.374;2022-10-04T01:12:38;3.13;;;2.08;;
60076;SDS011;45950;45.208;20.374;2022-10-04T01:15:06;4.50;;;1.85;;
60076;SDS011;45950;45.208;20.374;2022-10-04T01:17:34;4.00;;;1.95;;
60076;SDS011;45950;45.208;20.374;2022-10-04T01:20:00;5.30;;;2.22;;
60076;SDS011;45950;45.208;20.374;2022-10-04T01:22:36;4.53;;;1.95;;
60076;SDS011;45950;45.208;20.374;2022-10-04T01:25:05;4.50;;;1.70;;
60076;SDS011;45950;45.208;20.374;2022-10-04T01:27:34;4.00;;;2.10;;
60076;SDS011;45950;45.208;20.374;2022-10-04T01:30:03;3.47;;;2.20;;
60076;SDS011;45950;45.208;20.374;2022-10-04T01:32:33;6.00;;;2.28;;
60076;SDS011;45950;45.208;20.374;2022-10-04T01:35:00;3.70;;;2.05;;
60076;SDS011;45950;45.208;20.374;2022-10-04T01:37:27;3.97;;;1.92;;
60076;SDS011;45950;45.208;20.374;2022-10-04T01:39:55;3.92;;;1.95;;
60076;SDS011;45950;45.208;20.374;2022-10-04T01:42:22;5.35;;;2.13;;
60076;SDS011;45950;45.208;20.374;2022-10-04T01:45:02;5.13;;;1.63;;
60076;SDS011;45950;45.208;20.374;2022-10-04T01:47:34;5.20;;;2.30;;
60076;SDS011;45950;45.208;20.374;2022-10-04T01:50:04;5.60;;;1.77;;
60076;SDS011;45950;45.208;20.374;2022-10-04T01:52:32;6.10;;;2.42;;
60076;SDS011;45950;45.208;20.374;2022-10-04T01:55:02;4.82;;;1.85;;
60076;SDS011;45950;45.208;20.374;2022-10-04T01:57:32;5.38;;;2.17;;
60076;SDS011;45950;45.208;20.374;2022-10-04T02:00:01;5.05;;;2.33;;
60076;SDS011;45950;45.208;20.374;2022-10-04T02:02:42;3.72;;;2.33;;
60076;SDS011;45950;45.208;20.374;2022-10-04T02:05:11;5.95;;;2.60;;
60076;SDS011;45950;45.208;20.374;2022-10-04T02:07:38;5.05;;;2.20;;
60076;SDS011;45950;45.208;20.374;2022-10-04T02:10:08;3.83;;;2.17;;
60076;SDS011;45950;45.208;20.374;2022-10-04T02:12:36;4.60;;;2.58;;
60076;SDS011;45950;45.208;20.374;2022-10-04T02:17:51;5.47;;;2.00;;
60076;SDS011;45950;45.208;20.374;2022-10-04T02:20:20;3.58;;;2.53;;
60076;SDS011;45950;45.208;20.374;2022-10-04T02:22:49;3.42;;;1.80;;
60076;SDS011;45950;45.208;20.374;2022-10-04T02:25:18;4.72;;;2.45;;
60076;SDS011;45950;45.208;20.374;2022-10-04T02:27:45;3.92;;;2.20;;
60076;SDS011;45950;45.208;20.374;2022-10-04T02:30:12;5.32;;;2.47;;
60076;SDS011;45950;45.208;20.374;2022-10-04T02:32:41;4.20;;;2.42;;
60076;SDS011;45950;45.208;20.374;2022-10-04T02:35:24;3.13;;;2.20;;
60076;SDS011;45950;45.208;20.374;2022-10-04T02:37:53;8.35;;;2.67;;
60076;SDS011;45950;45.208;20.374;2022-10-04T02:40:23;4.43;;;2.13;;
60076;SDS011;45950;45.208;20.374;2022-10-04T02:42:56;4.30;;;2.10;;
60076;SDS011;45950;45.208;20.374;2022-10-04T02:45:26;4.63;;;2.40;;
60076;SDS011;45950;45.208;20.374;2022-10-04T02:47:56;4.50;;;2.08;;
60076;SDS011;45950;45.208;20.374;2022-10-04T02:50:25;6.30;;;2.33;;
60076;SDS011;45950;45.208;20.374;2022-10-04T02:52:54;7.18;;;2.60;;
60076;SDS011;45950;45.208;20.374;2022-10-04T02:55:25;3.33;;;1.83;;
60076;SDS011;45950;45.208;20.374;2022-10-04T02:57:53;3.40;;;1.88;;
60076;SDS011;45950;45.208;20.374;2022-10-04T03:00:20;3.20;;;1.65;;
60076;SDS011;45950;45.208;20.374;2022-10-04T03:03:08;3.13;;;2.00;;
60076;SDS011;45950;45.208;20.374;2022-10-04T03:05:36;7.47;;;2.33;;
60076;SDS011;45950;45.208;20.374;2022-10-04T03:08:03;5.15;;;2.30;;
60076;SDS011;45950;45.208;20.374;2022-10-04T03:10:32;4.47;;;2.55;;
60076;SDS011;45950;45.208;20.374;2022-10-04T03:12:59;3.78;;;2.28;;
60076;SDS011;45950;45.208;20.374;2022-10-04T03:15:26;4.13;;;2.10;;
60076;SDS011;45950;45.208;20.374;2022-10-04T03:17:53;4.82;;;2.10;;
60076;SDS011;45950;45.208;20.374;2022-10-04T03:20:19;4.57;;;2.22;;
60076;SDS011;45950;45.208;20.374;2022-10-04T03:22:47;5.30;;;2.10;;
60076;SDS011;45950;45.208;20.374;2022-10-04T03:25:17;6.40;;;2.65;;
60076;SDS011;45950;45.208;20.374;2022-10-04T03:27:47;5.95;;;2.38;;
60076;SDS011;45950;45.208;20.374;2022-10-04T03:30:14;6.05;;;2.33;;
60076;SDS011;45950;45.208;20.374;2022-10-04T03:32:44;3.35;;;1.90;;
60076;SDS011;45950;45.208;20.374;2022-10-04T03:35:14;5.38;;;2.28;;
60076;SDS011;45950;45.208;20.374;2022-10-04T03:37:43;4.85;;;2.30;;
60076;SDS011;45950;45.208;20.374;2022-10-04T03:40:09;4.65;;;2.30;;
60076;SDS011;45950;45.208;20.374;2022-10-04T03:42:36;5.55;;;2.60;;
60076;SDS011;45950;45.208;20.374;2022-10-04T03:45:06;5.55;;;2.10;;
60076;SDS011;45950;45.208;20.374;2022-10-04T03:47:34;4.63;;;2.38;;
60076;SDS011;45950;45.208;20.374;2022-10-04T03:50:02;3.92;;;2.33;;
60076;SDS011;45950;45.208;20.374;2022-10-04T03:52:30;5.20;;;2.90;;
60076;SDS011;45950;45.208;20.374;2022-10-04T03:54:58;10.95;;;5.18;;
60076;SDS011;45950;45.208;20.374;2022-10-04T03:57:26;7.80;;;5.20;;
60076;SDS011;45950;45.208;20.374;2022-10-04T03:59:53;5.55;;;3.28;;
60076;SDS011;45950;45.208;20.374;2022-10-04T04:02:25;10.10;;;6.95;;
60076;SDS011;45950;45.208;20.374;2022-10-04T04:04:55;10.98;;;5.20;;
60076;SDS011;45950;45.208;20.374;2022-10-04T04:07:24;18.77;;;8.80;;
60076;SDS011;45950;45.208;20.374;2022-10-04T04:09:53;9.38;;;5.00;;
60076;SDS011;45950;45.208;20.374;2022-10-04T04:12:26;9.40;;;5.60;;
60076;SDS011;45950;45.208;20.374;2022-10-04T04:14:58;12.23;;;7.07;;
60076;SDS011;45950;45.208;20.374;2022-10-04T04:17:31;7.68;;;4.80;;
60076;SDS011;45950;45.208;20.374;2022-10-04T04:20:02;9.98;;;4.63;;
60076;SDS011;45950;45.208;20.374;2022-10-04T04:22:29;7.15;;;4.93;;
60076;SDS011;45950;45.208;20.374;2022-10-04T04:24:57;8.95;;;3.38;;
60076;SDS011;45950;45.208;20.374;2022-10-04T04:27:25;8.85;;;3.78;;
60076;SDS011;45950;45.208;20.374;2022-10-04T04:29:53;12.23;;;6.63;;
60076;SDS011;45950;45.208;20.374;2022-10-04T04:32:20;23.70;;;10.98;;
60076;SDS011;45950;45.208;20.374;2022-10-04T04:34:50;43.75;;;21.70;;
60076;SDS011;45950;45.208;20.374;2022-10-04T04:37:17;42.53;;;19.33;;
60076;SDS011;45950;45.208;20.374;2022-10-04T04:39:47;17.15;;;8.00;;
60076;SDS011;45950;45.208;20.374;2022-10-04T04:42:17;6.93;;;3.92;;
60076;SDS011;45950;45.208;20.374;2022-10-04T04:44:45;7.00;;;4.35;;
60076;SDS011;45950;45.208;20.374;2022-10-04T04:47:18;5.00;;;3.03;;
60076;SDS011;45950;45.208;20.374;2022-10-04T04:49:46;6.00;;;3.00;;
60076;SDS011;45950;45.208;20.374;2022-10-04T04:55:13;6.10;;;3.25;;
60076;SDS011;45950;45.208;20.374;2022-10-04T04:57:41;6.95;;;2.83;;
60076;SDS011;45950;45.208;20.374;2022-10-04T05:00:15;6.53;;;2.88;;
60076;SDS011;45950;45.208;20.374;2022-10-04T05:02:49;6.22;;;2.50;;
60076;SDS011;45950;45.208;20.374;2022-10-04T05:05:20;4.50;;;2.90;;
60076;SDS011;45950;45.208;20.374;2022-10-04T05:07:47;4.35;;;2.90;;
60076;SDS011;45950;45.208;20.374;2022-10-04T05:10:29;6.55;;;3.30;;
60076;SDS011;45950;45.208;20.374;2022-10-04T05:12:57;5.50;;;2.88;;
60076;SDS011;45950;45.208;20.374;2022-10-04T05:15:25;11.10;;;6.18;;
60076;SDS011;45950;45.208;20.374;2022-10-04T05:17:52;12.27;;;4.10;;
60076;SDS011;45950;45.208;20.374;2022-10-04T05:20:19;10.65;;;7.32;;
60076;SDS011;45950;45.208;20.374;2022-10-04T05:22:46;8.10;;;4.35;;
60076;SDS011;45950;45.208;20.374;2022-10-04T05:25:14;8.98;;;5.00;;
60076;SDS011;45950;45.208;20.374;2022-10-04T05:27:48;10.50;;;4.65;;
60076;SDS011;45950;45.208;20.374;2022-10-04T05:30:20;8.45;;;4.95;;
60076;SDS011;45950;45.208;20.374;2022-10-04T05:35:16;16.95;;;7.75;;
60076;SDS011;45950;45.208;20.374;2022-10-04T05:37:54;14.50;;;7.85;;
60076;SDS011;45950;45.208;20.374;2022-10-04T05:40:30;31.42;;;15.30;;
60076;SDS011;45950;45.208;20.374;2022-10-04T05:43:00;22.90;;;11.57;;
60076;SDS011;45950;45.208;20.374;2022-10-04T05:45:28;8.52;;;5.03;;
60076;SDS011;45950;45.208;20.374;2022-10-04T05:50:58;12.23;;;7.93;;
60076;SDS011;45950;45.208;20.374;2022-10-04T05:53:25;10.32;;;4.90;;
60076;SDS011;45950;45.208;20.374;2022-10-04T05:55:57;13.70;;;6.53;;
60076;SDS011;45950;45.208;20.374;2022-10-04T05:58:37;11.55;;;5.55;;
60076;SDS011;45950;45.208;20.374;2022-10-04T06:01:17;7.57;;;3.72;;
60076;SDS011;45950;45.208;20.374;2022-10-04T06:03:54;8.40;;;3.90;;
60076;SDS011;45950;45.208;20.374;2022-10-04T06:06:28;6.88;;;3.95;;
60076;SDS011;45950;45.208;20.374;2022-10-04T06:09:02;7.75;;;3.67;;
60076;SDS011;45950;45.208;20.374;2022-10-04T06:11:34;20.05;;;9.48;;
60076;SDS011;45950;45.208;20.374;2022-10-04T06:14:11;20.08;;;8.13;;
60076;SDS011;45950;45.208;20.374;2022-10-04T06:16:45;47.75;;;21.95;;
60076;SDS011;45950;45.208;20.374;2022-10-04T06:19:22;9.88;;;3.97;;
60076;SDS011;45950;45.208;20.374;2022-10-04T06:22:01;20.98;;;11.32;;
60076;SDS011;45950;45.208;20.374;2022-10-04T06:24:28;16.05;;;8.52;;
60076;SDS011;45950;45.208;20.374;2022-10-04T06:26:57;20.38;;;10.98;;
60076;SDS011;45950;45.208;20.374;2022-10-04T06:29:27;16.25;;;8.35;;
60076;SDS011;45950;45.208;20.374;2022-10-04T06:32:00;11.63;;;4.68;;
60076;SDS011;45950;45.208;20.374;2022-10-04T06:34:39;7.22;;;4.75;;
60076;SDS011;45950;45.208;20.374;2022-10-04T06:37:18;5.63;;;2.40;;
60076;SDS011;45950;45.208;20.374;2022-10-04T06:40:00;4.93;;;2.50;;
60076;SDS011;45950;45.208;20.374;2022-10-04T06:42:42;6.65;;;2.60;;
60076;SDS011;45950;45.208;20.374;2022-10-04T06:50:41;7.47;;;2.60;;
60076;SDS011;45950;45.208;20.374;2022-10-04T06:53:13;4.88;;;2.75;;
60076;SDS011;45950;45.208;20.374;2022-10-04T06:55:48;9.50;;;2.55;;
60076;SDS011;45950;45.208;20.374;2022-10-04T06:58:30;6.65;;;2.22;;
60076;SDS011;45950;45.208;20.374;2022-10-04T07:01:01;4.88;;;2.10;;
60076;SDS011;45950;45.208;20.374;2022-10-04T07:03:31;6.43;;;3.10;;
60076;SDS011;45950;45.208;20.374;2022-10-04T07:06:01;5.05;;;2.42;;
60076;SDS011;45950;45.208;20.374;2022-10-04T07:08:32;5.40;;;2.50;;
60076;SDS011;45950;45.208;20.374;2022-10-04T07:11:02;11.50;;;6.15;;
60076;SDS011;45950;45.208;20.374;2022-10-04T07:13:33;8.00;;;3.25;;
60076;SDS011;45950;45.208;20.374;2022-10-04T07:16:05;7.07;;;2.85;;
60076;SDS011;45950;45.208;20.374;2022-10-04T07:18:34;7.30;;;2.55;;
60076;SDS011;45950;45.208;20.374;2022-10-04T07:21:06;10.57;;;3.75;;
60076;SDS011;45950;45.208;20.374;2022-10-04T07:23:36;11.50;;;5.53;;
60076;SDS011;45950;45.208;20.374;2022-10-04T07:26:05;7.60;;;3.13;;
60076;SDS011;45950;45.208;20.374;2022-10-04T07:28:33;9.57;;;3.95;;
60076;SDS011;45950;45.208;20.374;2022-10-04T07:31:22;4.20;;;2.03;;
60076;SDS011;45950;45.208;20.374;2022-10-04T07:33:51;7.47;;;2.15;;
60076;SDS011;45950;45.208;20.374;2022-10-04T07:36:21;5.50;;;3.38;;
60076;SDS011;45950;45.208;20.374;2022-10-04T07:38:50;7.20;;;2.53;;
60076;SDS011;45950;45.208;20.374;2022-10-04T07:41:20;3.78;;;2.03;;
60076;SDS011;45950;45.208;20.374;2022-10-04T07:43:48;4.07;;;1.85;;
60076;SDS011;45950;45.208;20.374;2022-10-04T07:46:23;4.55;;;2.15;;
60076;SDS011;45950;45.208;20.374;2022-10-04T07:48:51;7.45;;;1.95;;
60076;SDS011;45950;45.208;20.374;2022-10-04T07:51:18;9.52;;;1.95;;
60076;SDS011;45950;45.208;20.374;2022-10-04T07:53:50;5.47;;;2.22;;
60076;SDS011;45950;45.208;20.374;2022-10-04T07:56:20;6.03;;;2.08;;
60076;SDS011;45950;45.208;20.374;2022-10-04T07:58:50;5.38;;;2.08;;
60076;SDS011;45950;45.208;20.374;2022-10-04T08:01:21;3.88;;;1.63;;
60076;SDS011;45950;45.208;20.374;2022-10-04T08:03:59;3.53;;;1.92;;
60076;SDS011;45950;45.208;20.374;2022-10-04T08:06:30;4.47;;;1.65;;
60076;SDS011;45950;45.208;20.374;2022-10-04T08:09:10;6.68;;;1.90;;
60076;SDS011;45950;45.208;20.374;2022-10-04T08:11:40;2.90;;;1.77;;
60076;SDS011;45950;45.208;20.374;2022-10-04T08:14:15;6.78;;;2.50;;
60076;SDS011;45950;45.208;20.374;2022-10-04T08:16:48;5.55;;;2.70;;
60076;SDS011;45950;45.208;20.374;2022-10-04T08:19:23;4.03;;;1.80;;
60076;SDS011;45950;45.208;20.374;2022-10-04T08:21:56;5.32;;;1.95;;
60076;SDS011;45950;45.208;20.374;2022-10-04T08:24:27;4.03;;;1.80;;
60076;SDS011;45950;45.208;20.374;2022-10-04T08:26:57;3.90;;;1.83;;
60076;SDS011;45950;45.208;20.374;2022-10-04T08:29:38;4.63;;;2.00;;
60076;SDS011;45950;45.208;20.374;2022-10-04T08:32:17;5.43;;;2.13;;
60076;SDS011;45950;45.208;20.374;2022-10-04T08:34:54;4.28;;;2.33;;
60076;SDS011;45950;45.208;20.374;2022-10-04T08:37:27;7.78;;;2.40;;
60076;SDS011;45950;45.208;20.374;2022-10-04T08:40:09;5.45;;;1.88;;
60076;SDS011;45950;45.208;20.374;2022-10-04T08:42:55;9.60;;;3.67;;
60076;SDS011;45950;45.208;20.374;2022-10-04T08:53:51;4.10;;;1.83;;
60076;SDS011;45950;45.208;20.374;2022-10-04T08:56:30;7.70;;;3.08;;
60076;SDS011;45950;45.208;20.374;2022-10-04T09:01:56;3.47;;;2.00;;
60076;SDS011;45950;45.208;20.374;2022-10-04T09:07:26;6.30;;;3.08;;
60076;SDS011;45950;45.208;20.374;2022-10-04T09:10:13;3.67;;;1.98;;
60076;SDS011;45950;45.208;20.374;2022-10-04T09:12:55;5.20;;;2.33;;
60076;SDS011;45950;45.208;20.374;2022-10-04T09:15:28;5.90;;;2.70;;
60076;SDS011;45950;45.208;20.374;2022-10-04T09:18:00;4.43;;;2.00;;
60076;SDS011;45950;45.208;20.374;2022-10-04T09:20:30;3.13;;;1.90;;
60076;SDS011;45950;45.208;20.374;2022-10-04T09:23:03;3.58;;;1.80;;
60076;SDS011;45950;45.208;20.374;2022-10-04T09:28:21;6.05;;;2.25;;
60076;SDS011;45950;45.208;20.374;2022-10-04T09:31:00;5.07;;;2.53;;
60076;SDS011;45950;45.208;20.374;2022-10-04T09:33:34;4.55;;;2.20;;
60076;SDS011;45950;45.208;20.374;2022-10-04T09:39:26;6.90;;;2.38;;
60076;SDS011;45950;45.208;20.374;2022-10-04T09:44:50;6.43;;;3.00;;
60076;SDS011;45950;45.208;20.374;2022-10-04T09:52:35;4.90;;;1.90;;
60076;SDS011;45950;45.208;20.374;2022-10-04T09:55:12;5.40;;;2.10;;
60076;SDS011;45950;45.208;20.374;2022-10-04T09:57:47;12.32;;;5.78;;
60076;SDS011;45950;45.208;20.374;2022-10-04T10:00:20;7.47;;;3.63;;
60076;SDS011;45950;45.208;20.374;2022-10-04T10:05:43;11.55;;;5.10;;
60076;SDS011;45950;45.208;20.374;2022-10-04T10:08:14;5.10;;;2.55;;
60076;SDS011;45950;45.208;20.374;2022-10-04T10:10:46;31.83;;;15.18;;
60076;SDS011;45950;45.208;20.374;2022-10-04T10:16:31;5.60;;;2.80;;
60076;SDS011;45950;45.208;20.374;2022-10-04T10:19:03;8.38;;;3.53;;
60076;SDS011;45950;45.208;20.374;2022-10-04T10:21:42;11.10;;;3.80;;
60076;SDS011;45950;45.208;20.374;2022-10-04T10:24:22;4.97;;;2.53;;
60076;SDS011;45950;45.208;20.374;2022-10-04T10:26:53;8.00;;;2.67;;
60076;SDS011;45950;45.208;20.374;2022-10-04T10:29:47;7.28;;;3.42;;
60076;SDS011;45950;45.208;20.374;2022-10-04T10:32:31;6.25;;;3.15;;
60076;SDS011;45950;45.208;20.374;2022-10-04T10:37:52;4.63;;;2.05;;
60076;SDS011;45950;45.208;20.374;2022-10-04T10:40:24;4.10;;;1.60;;
60076;SDS011;45950;45.208;20.374;2022-10-04T10:43:09;7.00;;;2.40;;
60076;SDS011;45950;45.208;20.374;2022-10-04T10:45:59;5.35;;;1.95;;
60076;SDS011;45950;45.208;20.374;2022-10-04T10:48:32;7.30;;;2.30;;
60076;SDS011;45950;45.208;20.374;2022-10-04T10:51:01;6.93;;;4.25;;
60076;SDS011;45950;45.208;20.374;2022-10-04T11:04:39;12.20;;;5.32;;
60076;SDS011;45950;45.208;20.374;2022-10-04T11:12:55;8.82;;;3.70;;
60076;SDS011;45950;45.208;20.374;2022-10-04T11:15:39;9.68;;;4.70;;
60076;SDS011;45950;45.208;20.374;2022-10-04T11:18:16;6.35;;;3.22;;
60076;SDS011;45950;45.208;20.374;2022-10-04T11:28:50;12.93;;;4.15;;
60076;SDS011;45950;45.208;20.374;2022-10-04T11:37:04;3.55;;;1.40;;
60076;SDS011;45950;45.208;20.374;2022-10-04T11:39:52;5.20;;;1.67;;
60076;SDS011;45950;45.208;20.374;2022-10-04T11:42:27;2.58;;;1.27;;
60076;SDS011;45950;45.208;20.374;2022-10-04T11:45:01;3.00;;;1.48;;
60076;SDS011;45950;45.208;20.374;2022-10-04T11:47:38;2.35;;;1.20;;
60076;SDS011;45950;45.208;20.374;2022-10-04T11:50:20;2.83;;;1.30;;
60076;SDS011;45950;45.208;20.374;2022-10-04T11:55:46;4.30;;;1.63;;
60076;SDS011;45950;45.208;20.374;2022-10-04T11:58:19;4.93;;;1.50;;
60076;SDS011;45950;45.208;20.374;2022-10-04T12:01:02;2.25;;;1.13;;
60076;SDS011;45950;45.208;20.374;2022-10-04T12:03:40;2.58;;;1.25;;
60076;SDS011;45950;45.208;20.374;2022-10-04T12:06:14;3.13;;;1.00;;
60076;SDS011;45950;45.208;20.374;2022-10-04T12:08:49;1.17;;;1.00;;
60076;SDS011;45950;45.208;20.374;2022-10-04T12:11:30;2.90;;;1.10;;
60076;SDS011;45950;45.208;20.374;2022-10-04T12:14:17;2.28;;;1.00;;
60076;SDS011;45950;45.208;20.374;2022-10-04T12:16:56;3.53;;;1.00;;
60076;SDS011;45950;45.208;20.374;2022-10-04T12:19:50;3.03;;;1.40;;
60076;SDS011;45950;45.208;20.374;2022-10-04T12:22:28;2.75;;;0.90;;
60076;SDS011;45950;45.208;20.374;2022-10-04T12:25:09;3.58;;;1.33;;
60076;SDS011;45950;45.208;20.374;2022-10-04T12:30:35;1.88;;;1.27;;
60076;SDS011;45950;45.208;20.374;2022-10-04T12:33:10;3.75;;;1.45;;
60076;SDS011;45950;45.208;20.374;2022-10-04T12:35:44;4.97;;;1.45;;
60076;SDS011;45950;45.208;20.374;2022-10-04T12:38:16;4.43;;;1.25;;
60076;SDS011;45950;45.208;20.374;2022-10-04T12:40:46;2.03;;;1.25;;
60076;SDS011;45950;45.208;20.374;2022-10-04T12:43:18;3.80;;;1.40;;
60076;SDS011;45950;45.208;20.374;2022-10-04T12:45:50;2.63;;;1.00;;
60076;SDS011;45950;45.208;20.374;2022-10-04T12:48:35;3.60;;;1.60;;
60076;SDS011;45950;45.208;20.374;2022-10-04T12:51:09;2.05;;;1.10;;
60076;SDS011;45950;45.208;20.374;2022-10-04T12:53:43;2.42;;;1.10;;
60076;SDS011;45950;45.208;20.374;2022-10-04T12:56:14;4.13;;;1.40;;
60076;SDS011;45950;45.208;20.374;2022-10-04T12:58:56;2.53;;;1.08;;
60076;SDS011;45950;45.208;20.374;2022-10-04T13:01:25;3.33;;;1.40;;
60076;SDS011;45950;45.208;20.374;2022-10-04T13:04:01;3.47;;;1.17;;
60076;SDS011;45950;45.208;20.374;2022-10-04T13:06:31;2.30;;;1.23;;
60076;SDS011;45950;45.208;20.374;2022-10-04T13:09:03;3.75;;;1.15;;
60076;SDS011;45950;45.208;20.374;2022-10-04T13:11:36;2.47;;;1.23;;
60076;SDS011;45950;45.208;20.374;2022-10-04T13:14:21;2.60;;;0.90;;
60076;SDS011;45950;45.208;20.374;2022-10-04T13:16:52;3.13;;;1.30;;
60076;SDS011;45950;45.208;20.374;2022-10-04T13:19:23;3.67;;;2.03;;
60076;SDS011;45950;45.208;20.374;2022-10-04T13:22:05;2.25;;;1.02;;
60076;SDS011;45950;45.208;20.374;2022-10-04T13:24:38;4.03;;;1.13;;
60076;SDS011;45950;45.208;20.374;2022-10-04T13:27:39;4.30;;;1.17;;
60076;SDS011;45950;45.208;20.374;2022-10-04T13:30:14;6.00;;;2.85;;
60076;SDS011;45950;45.208;20.374;2022-10-04T13:32:42;2.92;;;1.20;;
60076;SDS011;45950;45.208;20.374;2022-10-04T13:35:13;3.67;;;1.55;;
60076;SDS011;45950;45.208;20.374;2022-10-04T13:37:41;2.03;;;1.23;;
60076;SDS011;45950;45.208;20.374;2022-10-04T13:43:07;3.13;;;1.33;;
60076;SDS011;45950;45.208;20.374;2022-10-04T13:45:40;1.77;;;1.02;;
60076;SDS011;45950;45.208;20.374;2022-10-04T13:51:02;2.67;;;1.65;;
60076;SDS011;45950;45.208;20.374;2022-10-04T13:53:32;3.90;;;2.17;;
60076;SDS011;45950;45.208;20.374;2022-10-04T13:56:34;4.20;;;1.88;;
60076;SDS011;45950;45.208;20.374;2022-10-04T13:59:08;4.85;;;2.40;;
60076;SDS011;45950;45.208;20.374;2022-10-04T14:01:45;5.30;;;2.40;;
60076;SDS011;45950;45.208;20.374;2022-10-04T14:04:22;3.20;;;1.30;;
60076;SDS011;45950;45.208;20.374;2022-10-04T14:07:00;5.47;;;1.90;;
60076;SDS011;45950;45.208;20.374;2022-10-04T14:09:39;3.75;;;1.63;;
60076;SDS011;45950;45.208;20.374;2022-10-04T14:18:01;12.13;;;6.25;;
60076;SDS011;45950;45.208;20.374;2022-10-04T14:34:36;11.00;;;6.13;;
60076;SDS011;45950;45.208;20.374;2022-10-04T14:39:58;19.00;;;8.60;;
60076;SDS011;45950;45.208;20.374;2022-10-04T14:42:39;6.10;;;2.38;;
60076;SDS011;45950;45.208;20.374;2022-10-04T14:45:20;6.90;;;3.85;;
60076;SDS011;45950;45.208;20.374;2022-10-04T14:48:16;5.18;;;2.10;;
60076;SDS011;45950;45.208;20.374;2022-10-04T14:50:48;9.00;;;4.70;;
60076;SDS011;45950;45.208;20.374;2022-10-04T14:53:22;7.97;;;4.18;;
60076;SDS011;45950;45.208;20.374;2022-10-04T14:55:59;9.77;;;4.65;;
60076;SDS011;45950;45.208;20.374;2022-10-04T14:58:32;4.38;;;2.50;;
60076;SDS011;45950;45.208;20.374;2022-10-04T15:03:46;6.18;;;2.53;;
60076;SDS011;45950;45.208;20.374;2022-10-04T15:06:21;7.10;;;2.13;;
60076;SDS011;45950;45.208;20.374;2022-10-04T15:11:48;3.17;;;2.13;;
60076;SDS011;45950;45.208;20.374;2022-10-04T15:17:10;5.15;;;3.33;;
60076;SDS011;45950;45.208;20.374;2022-10-04T15:19:58;6.22;;;3.72;;
60076;SDS011;45950;45.208;20.374;2022-10-04T15:22:29;6.15;;;2.85;;
60076;SDS011;45950;45.208;20.374;2022-10-04T15:24:57;9.68;;;4.60;;
60076;SDS011;45950;45.208;20.374;2022-10-04T15:30:19;15.23;;;7.63;;
60076;SDS011;45950;45.208;20.374;2022-10-04T15:32:48;10.50;;;6.82;;
60076;SDS011;45950;45.208;20.374;2022-10-04T15:35:21;9.07;;;4.70;;
60076;SDS011;45950;45.208;20.374;2022-10-04T15:37:52;13.55;;;6.05;;
60076;SDS011;45950;45.208;20.374;2022-10-04T15:40:27;12.25;;;6.10;;
60076;SDS011;45950;45.208;20.374;2022-10-04T15:42:58;9.68;;;4.65;;
60076;SDS011;45950;45.208;20.374;2022-10-04T15:45:34;10.48;;;4.40;;
60076;SDS011;45950;45.208;20.374;2022-10-04T15:48:31;7.97;;;3.05;;
60076;SDS011;45950;45.208;20.374;2022-10-04T15:51:06;3.55;;;1.92;;
60076;SDS011;45950;45.208;20.374;2022-10-04T15:53:43;7.30;;;1.90;;
60076;SDS011;45950;45.208;20.374;2022-10-04T15:56:18;5.13;;;1.90;;
60076;SDS011;45950;45.208;20.374;2022-10-04T15:58:54;6.03;;;2.03;;
60076;SDS011;45950;45.208;20.374;2022-10-04T16:01:39;5.03;;;2.15;;
60076;SDS011;45950;45.208;20.374;2022-10-04T16:07:09;5.82;;;1.90;;
60076;SDS011;45950;45.208;20.374;2022-10-04T16:09:43;5.28;;;2.20;;
60076;SDS011;45950;45.208;20.374;2022-10-04T16:12:19;4.18;;;1.67;;
60076;SDS011;45950;45.208;20.374;2022-10-04T16:20:24;4.32;;;1.70;;
60076;SDS011;45950;45.208;20.374;2022-10-04T16:25:41;4.55;;;1.92;;
60076;SDS011;45950;45.208;20.374;2022-10-04T16:28:10;4.65;;;1.70;;
60076;SDS011;45950;45.208;20.374;2022-10-04T16:30:45;5.00;;;2.30;;
60076;SDS011;45950;45.208;20.374;2022-10-04T16:33:22;4.47;;;2.05;;
60076;SDS011;45950;45.208;20.374;2022-10-04T16:35:59;4.43;;;2.20;;
60076;SDS011;45950;45.208;20.374;2022-10-04T16:38:31;6.40;;;3.22;;
60076;SDS011;45950;45.208;20.374;2022-10-04T16:41:05;5.82;;;2.72;;
60076;SDS011;45950;45.208;20.374;2022-10-04T16:43:36;4.22;;;2.40;;
60076;SDS011;45950;45.208;20.374;2022-10-04T16:46:05;5.63;;;2.25;;
60076;SDS011;45950;45.208;20.374;2022-10-04T16:48:37;7.88;;;2.78;;
60076;SDS011;45950;45.208;20.374;2022-10-04T16:53:52;4.47;;;2.20;;
60076;SDS011;45950;45.208;20.374;2022-10-04T16:56:25;5.15;;;2.40;;
60076;SDS011;45950;45.208;20.374;2022-10-04T16:58:54;5.32;;;2.10;;
60076;SDS011;45950;45.208;20.374;2022-10-04T17:01:31;4.18;;;2.08;;
60076;SDS011;45950;45.208;20.374;2022-10-04T17:04:02;4.82;;;2.13;;
60076;SDS011;45950;45.208;20.374;2022-10-04T17:06:39;3.75;;;2.20;;
60076;SDS011;45950;45.208;20.374;2022-10-04T17:09:13;3.97;;;2.42;;
60076;SDS011;45950;45.208;20.374;2022-10-04T17:16:58;4.95;;;2.70;;
60076;SDS011;45950;45.208;20.374;2022-10-04T17:19:30;7.60;;;3.08;;
60076;SDS011;45950;45.208;20.374;2022-10-04T17:22:04;4.68;;;2.50;;
60076;SDS011;45950;45.208;20.374;2022-10-04T17:24:36;6.18;;;3.40;;
60076;SDS011;45950;45.208;20.374;2022-10-04T17:27:19;6.05;;;3.28;;
60076;SDS011;45950;45.208;20.374;2022-10-04T17:29:52;5.22;;;2.72;;
60076;SDS011;45950;45.208;20.374;2022-10-04T17:32:23;4.55;;;3.17;;
60076;SDS011;45950;45.208;20.374;2022-10-04T17:34:55;6.85;;;3.58;;
60076;SDS011;45950;45.208;20.374;2022-10-04T17:37:28;8.40;;;3.55;;
60076;SDS011;45950;45.208;20.374;2022-10-04T17:39:58;7.97;;;3.58;;
60076;SDS011;45950;45.208;20.374;2022-10-04T17:42:33;5.45;;;2.80;;
60076;SDS011;45950;45.208;20.374;2022-10-04T17:47:47;6.20;;;4.10;;
60076;SDS011;45950;45.208;20.374;2022-10-04T17:50:38;6.00;;;3.95;;